createdAt,value
2023-05-14T00:02:08.968Z,13.50
2023-05-14T00:04:35.924Z,13.89
2023-05-14T00:07:02.840Z,13.79
2023-05-14T00:09:30.457Z,13.27
2023-05-14T00:11:57.348Z,13.74
2023-05-14T00:14:24.177Z,13.97
2023-05-14T00:16:54.059Z,14.06
2023-05-14T00:19:20.924Z,13.18
2023-05-14T00:21:48.618Z,13.38
2023-05-14T00:24:15.418Z,14.00
2023-05-14T00:26:42.144Z,14.01
2023-05-14T00:29:08.921Z,13.97
2023-05-14T00:31:35.797Z,13.97
2023-05-14T00:34:03.195Z,13.98
2023-05-14T00:36:31.441Z,13.84
2023-05-14T00:38:58.202Z,13.98
2023-05-14T00:41:24.987Z,13.69
2023-05-14T00:43:51.814Z,13.95
2023-05-14T00:46:18.859Z,13.96
2023-05-14T00:48:46.218Z,13.96
2023-05-14T00:51:13.244Z,13.96
2023-05-14T00:53:40.078Z,13.98
2023-05-14T00:56:08.259Z,13.68
2023-05-14T00:58:35.189Z,13.96
2023-05-14T01:01:02.331Z,13.66
2023-05-14T01:03:31.901Z,12.18
2023-05-14T01:06:09.951Z,13.79
2023-05-14T01:08:44.815Z,13.92
2023-05-14T01:11:13.908Z,13.88
2023-05-14T01:14:05.094Z,13.85
2023-05-14T01:16:34.118Z,13.73
2023-05-14T01:19:02.775Z,13.57
2023-05-14T01:21:40.843Z,13.63
2023-05-14T01:24:08.483Z,13.20
2023-05-14T01:26:36.581Z,13.62
2023-05-14T01:29:12.284Z,13.76
2023-05-14T01:31:43.095Z,13.79
2023-05-14T01:34:12.739Z,13.71
2023-05-14T01:36:41.496Z,13.87
2023-05-14T01:39:09.726Z,13.53
2023-05-14T01:41:39.366Z,13.86
2023-05-14T01:44:06.361Z,13.84
2023-05-14T01:46:33.793Z,13.86
2023-05-14T01:49:01.232Z,13.74
2023-05-14T01:51:28.286Z,13.83
2023-05-14T01:53:55.056Z,13.85
2023-05-14T01:56:23.806Z,13.72
2023-05-14T01:58:50.573Z,13.35
2023-05-14T02:01:17.486Z,13.78
2023-05-14T02:03:44.351Z,13.53
2023-05-14T02:06:11.135Z,12.99
2023-05-14T02:08:38.106Z,13.73
2023-05-14T02:11:04.893Z,13.71
2023-05-14T02:13:31.662Z,13.44
2023-05-14T02:15:58.827Z,13.64
2023-05-14T02:18:25.737Z,11.89
2023-05-14T02:20:52.862Z,13.22
2023-05-14T02:23:25.600Z,13.19
2023-05-14T02:25:58.108Z,13.44
2023-05-14T02:28:24.895Z,13.41
2023-05-14T02:30:51.712Z,12.91
2023-05-14T02:33:18.720Z,13.34
2023-05-14T02:35:45.541Z,12.60
2023-05-14T02:38:13.334Z,13.27
2023-05-14T02:40:40.103Z,13.20
2023-05-14T02:43:07.062Z,13.10
2023-05-14T02:45:33.878Z,12.73
2023-05-14T02:48:00.736Z,13.24
2023-05-14T02:50:27.674Z,13.18
2023-05-14T02:52:54.497Z,13.09
2023-05-14T02:55:21.849Z,13.09
2023-05-14T02:57:48.688Z,12.48
2023-05-14T03:00:15.719Z,12.85
2023-05-14T03:02:43.680Z,13.16
2023-05-14T03:05:10.863Z,12.88
2023-05-14T03:07:37.815Z,12.61
2023-05-14T03:10:05.863Z,13.26
2023-05-14T03:12:32.644Z,12.66
2023-05-14T03:14:59.388Z,13.22
2023-05-14T03:17:26.295Z,13.20
2023-05-14T03:19:53.070Z,13.08
2023-05-14T03:22:19.993Z,13.25
2023-05-14T03:24:48.041Z,13.25
2023-05-14T03:27:15.017Z,12.84
2023-05-14T03:29:41.859Z,13.05
2023-05-14T03:32:08.705Z,13.10
2023-05-14T03:34:35.984Z,13.14
2023-05-14T03:37:02.873Z,13.14
2023-05-14T03:39:29.681Z,12.76
2023-05-14T03:41:58.851Z,13.24
2023-05-14T03:44:25.820Z,13.50
2023-05-14T03:46:53.004Z,13.42
2023-05-14T03:49:19.818Z,13.20
2023-05-14T03:51:46.665Z,12.83
2023-05-14T03:54:13.578Z,13.55
2023-05-14T03:56:40.434Z,13.79
2023-05-14T03:59:07.259Z,13.34
2023-05-14T04:01:34.324Z,13.94
2023-05-14T04:04:01.264Z,14.05
2023-05-14T04:06:28.168Z,14.17
2023-05-14T04:08:55.032Z,14.09
2023-05-14T04:11:22.278Z,14.35
2023-05-14T04:13:49.452Z,14.44
2023-05-14T04:16:16.260Z,14.50
2023-05-14T04:18:43.101Z,14.33
2023-05-14T04:21:09.950Z,14.12
2023-05-14T04:23:36.752Z,14.50
2023-05-14T04:26:04.814Z,14.53
2023-05-14T04:28:31.597Z,14.63
2023-05-14T04:30:58.371Z,14.34
2023-05-14T04:33:25.388Z,15.00
2023-05-14T04:35:53.050Z,14.44
2023-05-14T04:38:19.880Z,15.18
2023-05-14T04:40:46.662Z,15.33
2023-05-14T04:43:13.424Z,15.40
2023-05-14T04:45:41.085Z,15.35
2023-05-14T04:48:08.583Z,15.48
2023-05-14T04:50:35.612Z,15.68
2023-05-14T04:53:03.198Z,15.79
2023-05-14T04:55:30.100Z,15.46
2023-05-14T04:57:57.006Z,15.91
2023-05-14T05:00:24.197Z,15.99
2023-05-14T05:02:51.343Z,16.04
2023-05-14T05:05:18.247Z,15.99
2023-05-14T05:07:45.017Z,16.07
2023-05-14T05:10:11.945Z,16.14
2023-05-14T05:12:38.718Z,16.36
2023-05-14T05:15:06.288Z,15.85
2023-05-14T05:17:33.190Z,16.08
2023-05-14T05:20:00.119Z,16.77
2023-05-14T05:22:27.082Z,16.88
2023-05-14T05:24:53.886Z,15.47
2023-05-14T05:27:21.993Z,16.63
2023-05-14T05:29:48.953Z,17.24
2023-05-14T05:32:15.993Z,17.25
2023-05-14T05:34:42.872Z,17.46
2023-05-14T05:37:12.769Z,17.60
2023-05-14T05:39:40.079Z,17.76
2023-05-14T05:42:07.313Z,17.82
2023-05-14T05:44:34.220Z,17.87
2023-05-14T05:47:01.995Z,17.82
2023-05-14T05:49:31.705Z,17.91
2023-05-14T05:51:58.505Z,18.21
2023-05-14T05:54:25.636Z,17.88
2023-05-14T05:56:52.397Z,18.48
2023-05-14T05:59:19.156Z,18.67
2023-05-14T06:01:46.043Z,18.60
2023-05-14T06:04:12.790Z,18.79
2023-05-14T06:06:39.658Z,18.57
2023-05-14T06:09:07.106Z,18.93
2023-05-14T06:11:34.185Z,18.89
2023-05-14T06:14:01.679Z,19.18
2023-05-14T06:17:00.951Z,19.36
2023-05-14T06:19:28.906Z,19.50
2023-05-14T06:21:56.300Z,19.73
2023-05-14T06:24:24.074Z,19.84
2023-05-14T06:27:11.685Z,19.80
2023-05-14T06:29:38.643Z,19.93
2023-05-14T06:32:05.953Z,20.23
2023-05-14T06:34:32.763Z,20.30
2023-05-14T06:37:00.320Z,20.33
2023-05-14T06:39:27.068Z,20.16
2023-05-14T06:41:53.780Z,20.57
2023-05-14T06:44:23.147Z,19.94
2023-05-14T06:46:49.910Z,19.52
2023-05-14T06:49:17.104Z,20.86
2023-05-14T06:51:43.944Z,20.92
2023-05-14T06:54:10.677Z,21.02
2023-05-14T06:56:37.574Z,21.05
2023-05-14T06:59:04.367Z,21.31
2023-05-14T07:01:31.282Z,21.53
2023-05-14T07:03:58.127Z,21.64
2023-05-14T07:06:24.935Z,21.78
2023-05-14T07:08:51.758Z,21.48
2023-05-14T07:11:18.551Z,21.65
2023-05-14T07:13:50.746Z,21.95
2023-05-14T07:16:17.500Z,21.99
2023-05-14T07:18:48.410Z,21.68
2023-05-14T07:21:18.766Z,22.16
2023-05-14T07:23:47.054Z,22.32
2023-05-14T07:26:17.194Z,22.43
2023-05-14T07:28:43.983Z,22.54
2023-05-14T07:31:11.157Z,22.61
2023-05-14T07:33:38.512Z,22.60
2023-05-14T07:36:05.604Z,22.71
2023-05-14T07:38:32.809Z,22.84
2023-05-14T07:41:00.212Z,22.76
2023-05-14T07:43:27.784Z,23.06
2023-05-14T07:45:56.395Z,23.05
2023-05-14T07:48:23.930Z,23.08
2023-05-14T07:50:51.887Z,23.17
2023-05-14T07:53:19.724Z,23.40
2023-05-14T07:55:48.797Z,23.03
2023-05-14T07:58:16.275Z,23.34
2023-05-14T08:00:43.312Z,23.29
2023-05-14T08:03:10.395Z,23.53
2023-05-14T08:05:37.576Z,23.50
2023-05-14T08:08:05.533Z,23.79
2023-05-14T08:10:32.346Z,23.80
2023-05-14T08:12:59.210Z,23.82
2023-05-14T08:15:27.933Z,23.85
2023-05-14T08:17:55.403Z,24.00
2023-05-14T08:20:24.197Z,23.93
2023-05-14T08:22:51.275Z,24.04
2023-05-14T08:25:18.165Z,24.21
2023-05-14T08:27:45.390Z,24.36
2023-05-14T08:30:12.688Z,24.04
2023-05-14T08:32:39.981Z,23.50
2023-05-14T08:35:07.656Z,24.53
2023-05-14T08:37:34.634Z,24.85
2023-05-14T08:40:01.842Z,24.94
2023-05-14T08:42:29.450Z,25.06
2023-05-14T08:45:03.867Z,25.30
2023-05-14T08:47:31.318Z,25.41
2023-05-14T08:50:04.528Z,25.25
2023-05-14T08:52:31.880Z,25.07
2023-05-14T08:55:04.772Z,25.39
2023-05-14T08:57:33.610Z,25.34
2023-05-14T09:00:01.465Z,25.35
2023-05-14T09:02:30.605Z,25.45
2023-05-14T09:05:00.198Z,25.61
2023-05-14T09:07:27.478Z,25.33
2023-05-14T09:09:55.049Z,25.42
2023-05-14T09:12:22.482Z,25.52
2023-05-14T09:14:50.911Z,24.65
2023-05-14T09:17:18.568Z,25.56
2023-05-14T09:19:49.442Z,25.88
2023-05-14T09:22:17.663Z,25.91
2023-05-14T09:24:45.314Z,25.64
2023-05-14T09:27:21.509Z,25.90
2023-05-14T09:29:48.547Z,25.88
2023-05-14T09:32:15.542Z,26.35
2023-05-14T09:34:42.400Z,26.75
2023-05-14T09:37:09.809Z,26.57
2023-05-14T09:39:37.926Z,27.10
2023-05-14T09:42:05.343Z,26.70
2023-05-14T09:44:32.289Z,27.11
2023-05-14T09:46:59.304Z,27.12
2023-05-14T09:49:26.235Z,26.90
2023-05-14T09:51:53.017Z,27.09
2023-05-14T09:54:19.901Z,27.71
2023-05-14T09:56:46.697Z,26.78
2023-05-14T09:59:13.489Z,27.52
2023-05-14T10:01:43.267Z,27.65
2023-05-14T10:04:11.507Z,28.33
2023-05-14T10:06:39.835Z,27.91
2023-05-14T10:09:13.826Z,27.38
2023-05-14T10:11:44.662Z,27.33
2023-05-14T10:14:23.249Z,27.37
2023-05-14T10:16:51.554Z,27.98
2023-05-14T10:19:27.452Z,27.62
2023-05-14T10:22:07.592Z,28.25
2023-05-14T10:24:35.381Z,30.12
2023-05-14T10:27:02.731Z,29.95
2023-05-14T10:29:34.129Z,28.90
2023-05-14T10:32:06.449Z,28.59
2023-05-14T10:34:41.290Z,28.67
2023-05-14T10:37:20.963Z,29.87
2023-05-14T10:39:49.709Z,30.84
2023-05-14T10:42:21.979Z,31.21
2023-05-14T10:44:56.956Z,31.42
2023-05-14T10:47:26.879Z,31.63
2023-05-14T10:49:56.867Z,31.42
2023-05-14T10:52:24.853Z,30.03
2023-05-14T10:54:51.891Z,29.11
2023-05-14T10:57:20.675Z,28.59
2023-05-14T10:59:49.594Z,29.33
2023-05-14T11:02:31.312Z,30.58
2023-05-14T11:04:59.006Z,32.10
2023-05-14T11:07:30.041Z,32.68
2023-05-14T11:10:05.641Z,33.14
2023-05-14T11:12:34.160Z,33.60
2023-05-14T11:15:04.605Z,34.86
2023-05-14T11:17:33.458Z,34.47
2023-05-14T11:20:00.413Z,33.82
2023-05-14T11:22:27.648Z,33.68
2023-05-14T11:24:54.641Z,34.35
2023-05-14T11:27:23.915Z,36.20
2023-05-14T11:29:51.075Z,37.68
2023-05-14T11:32:18.889Z,38.40
2023-05-14T11:34:47.109Z,39.48
2023-05-14T11:37:16.174Z,40.74
2023-05-14T11:39:48.371Z,42.47
2023-05-14T11:42:18.762Z,43.71
2023-05-14T11:44:49.057Z,45.49
2023-05-14T11:47:17.617Z,45.97
2023-05-14T11:49:45.045Z,41.36
2023-05-14T11:52:14.200Z,44.64
2023-05-14T11:54:42.856Z,47.90
2023-05-14T11:57:10.820Z,47.59
2023-05-14T11:59:38.641Z,48.62
2023-05-14T12:02:08.757Z,46.60
2023-05-14T12:04:37.673Z,40.87
2023-05-14T12:07:12.596Z,36.25
2023-05-14T12:09:45.011Z,33.94
2023-05-14T12:12:12.537Z,32.19
2023-05-14T12:14:42.668Z,32.93
2023-05-14T12:17:17.884Z,31.38
2023-05-14T12:19:46.150Z,29.26
2023-05-14T12:22:16.354Z,29.46
2023-05-14T12:24:43.739Z,28.56
2023-05-14T12:27:11.054Z,27.48
2023-05-14T12:29:41.608Z,27.27
2023-05-14T12:32:09.827Z,27.04
2023-05-14T12:34:38.204Z,26.27
2023-05-14T12:37:06.946Z,27.30
2023-05-14T12:39:34.812Z,33.88
2023-05-14T12:42:01.959Z,39.17
2023-05-14T12:44:30.324Z,43.11
2023-05-14T12:46:57.860Z,45.15
2023-05-14T12:49:24.857Z,46.49
2023-05-14T12:51:57.391Z,45.32
2023-05-14T12:54:31.768Z,40.88
2023-05-14T12:56:59.085Z,39.18
2023-05-14T12:59:25.814Z,40.32
2023-05-14T13:01:52.569Z,36.22
2023-05-14T13:04:19.377Z,34.64
2023-05-14T13:06:46.438Z,33.38
2023-05-14T13:09:13.251Z,32.33
2023-05-14T13:11:40.126Z,31.51
2023-05-14T13:14:06.899Z,30.94
2023-05-14T13:16:33.725Z,30.05
2023-05-14T13:19:00.617Z,29.04
2023-05-14T13:21:27.466Z,27.92
2023-05-14T13:23:54.535Z,27.74
2023-05-14T13:26:21.689Z,26.81
2023-05-14T13:28:48.539Z,26.66
2023-05-14T13:31:15.854Z,26.16
2023-05-14T13:33:43.804Z,26.19
2023-05-14T13:36:13.444Z,26.14
2023-05-14T13:38:40.247Z,25.75
2023-05-14T13:41:08.375Z,25.48
2023-05-14T13:43:35.838Z,25.50
2023-05-14T13:46:04.401Z,25.27
2023-05-14T13:48:31.488Z,25.38
2023-05-14T13:50:59.336Z,24.71
2023-05-14T13:53:28.701Z,25.10
2023-05-14T13:56:00.233Z,24.68
2023-05-14T13:58:27.916Z,24.79
2023-05-14T14:00:54.790Z,24.79
2023-05-14T14:03:21.694Z,24.67
2023-05-14T14:05:48.606Z,24.15
2023-05-14T14:08:23.427Z,24.39
2023-05-14T14:10:54.528Z,24.11
2023-05-14T14:13:22.945Z,24.18
2023-05-14T14:15:50.209Z,24.13
2023-05-14T14:18:17.026Z,24.08
2023-05-14T14:20:43.930Z,24.18
2023-05-14T14:23:10.650Z,24.12
2023-05-14T14:25:37.442Z,23.72
2023-05-14T14:28:04.238Z,24.08
2023-05-14T14:30:32.283Z,23.71
2023-05-14T14:33:01.281Z,23.82
2023-05-14T14:35:28.301Z,23.18
2023-05-14T14:37:55.750Z,23.66
2023-05-14T14:40:23.995Z,23.48
2023-05-14T14:42:51.090Z,23.67
2023-05-14T14:45:18.385Z,23.68
2023-05-14T14:47:46.667Z,23.69
2023-05-14T14:50:13.735Z,22.29
2023-05-14T14:52:45.429Z,23.72
2023-05-14T14:55:14.055Z,23.15
2023-05-14T14:57:40.870Z,23.73
2023-05-14T15:00:09.278Z,23.73
2023-05-14T15:02:38.422Z,23.41
2023-05-14T15:05:06.009Z,23.63
2023-05-14T15:07:33.109Z,23.23
2023-05-14T15:10:00.116Z,24.10
2023-05-14T15:12:26.952Z,24.31
2023-05-14T15:14:53.826Z,24.47
2023-05-14T15:17:20.661Z,24.64
2023-05-14T15:19:47.656Z,24.38
2023-05-14T15:22:14.434Z,24.58
2023-05-14T15:24:41.217Z,24.26
2023-05-14T15:27:08.080Z,24.19
2023-05-14T15:29:35.068Z,24.16
2023-05-14T15:32:03.238Z,23.76
2023-05-14T15:34:30.052Z,23.87
2023-05-14T15:36:56.851Z,23.97
2023-05-14T15:39:23.788Z,23.92
2023-05-14T15:41:50.516Z,23.18
2023-05-14T15:44:17.211Z,22.37
2023-05-14T15:46:44.377Z,23.28
2023-05-14T15:49:11.150Z,23.82
2023-05-14T15:51:37.931Z,23.95
2023-05-14T15:54:04.900Z,23.97
2023-05-14T15:56:31.710Z,23.86
2023-05-14T15:58:58.373Z,23.58
2023-05-14T16:01:25.452Z,23.64
2023-05-14T16:03:53.101Z,23.62
2023-05-14T16:06:20.088Z,23.85
2023-05-14T16:08:46.852Z,23.47
2023-05-14T16:11:13.692Z,23.47
2023-05-14T16:13:41.606Z,23.86
2023-05-14T16:16:08.506Z,24.18
2023-05-14T16:18:35.344Z,24.17
2023-05-14T16:21:04.894Z,22.85
2023-05-14T16:23:34.880Z,23.69
2023-05-14T16:26:03.391Z,23.54
2023-05-14T16:28:30.436Z,23.42
2023-05-14T16:30:57.179Z,23.44
2023-05-14T16:33:24.147Z,23.18
2023-05-14T16:35:51.457Z,23.43
2023-05-14T16:38:19.326Z,22.66
2023-05-14T16:40:46.088Z,23.05
2023-05-14T16:43:13.085Z,23.20
2023-05-14T16:45:41.167Z,23.09
2023-05-14T16:48:07.966Z,22.81
2023-05-14T16:50:37.827Z,22.87
2023-05-14T16:53:04.768Z,22.78
2023-05-14T16:55:31.593Z,22.44
2023-05-14T16:57:58.902Z,22.46
2023-05-14T17:00:26.510Z,22.48
2023-05-14T17:02:54.469Z,22.27
2023-05-14T17:05:22.062Z,22.37
2023-05-14T17:07:49.278Z,22.18
2023-05-14T17:10:16.610Z,22.22
2023-05-14T17:12:43.513Z,21.84
2023-05-14T17:15:11.063Z,21.70
2023-05-14T17:17:38.422Z,21.37
2023-05-14T17:22:32.951Z,21.86
2023-05-14T17:25:00.026Z,21.80
2023-05-14T17:27:29.205Z,21.54
2023-05-14T17:29:56.268Z,21.35
2023-05-14T17:32:23.051Z,21.56
2023-05-14T17:34:50.145Z,20.90
2023-05-14T17:37:17.170Z,21.36
2023-05-14T17:39:43.864Z,21.29
2023-05-14T17:42:10.963Z,21.18
2023-05-14T17:44:37.840Z,20.89
2023-05-14T17:47:05.340Z,20.80
2023-05-14T17:49:32.113Z,20.79
2023-05-14T17:51:59.097Z,20.68
2023-05-14T17:54:25.902Z,20.42
2023-05-14T17:56:53.100Z,20.48
2023-05-14T17:59:22.467Z,20.39
2023-05-14T18:01:51.761Z,19.92
2023-05-14T18:04:18.394Z,20.10
2023-05-14T18:06:45.799Z,20.17
2023-05-14T18:09:12.620Z,19.98
2023-05-14T18:11:39.471Z,19.98
2023-05-14T18:14:06.284Z,19.96
2023-05-14T18:16:33.257Z,19.68
2023-05-14T18:19:02.948Z,19.78
2023-05-14T18:21:29.816Z,19.54
2023-05-14T18:23:56.570Z,19.68
2023-05-14T18:26:23.372Z,19.66
2023-05-14T18:28:50.209Z,19.28
2023-05-14T18:31:17.001Z,18.90
2023-05-14T18:33:43.704Z,19.27
2023-05-14T18:36:11.285Z,19.25
2023-05-14T18:38:38.585Z,19.25
2023-05-14T18:41:05.527Z,18.93
2023-05-14T18:43:32.335Z,19.28
2023-05-14T18:45:59.540Z,18.94
2023-05-14T18:48:26.443Z,19.14
2023-05-14T18:50:53.453Z,18.39
2023-05-14T18:53:20.234Z,17.52
2023-05-14T18:55:47.092Z,18.94
2023-05-14T18:58:14.579Z,18.88
2023-05-14T19:00:41.957Z,18.02
2023-05-14T19:03:09.014Z,18.70
2023-05-14T19:05:35.904Z,18.46
2023-05-14T19:08:02.880Z,17.36
2023-05-14T19:10:29.949Z,18.43
2023-05-14T19:13:04.574Z,18.49
2023-05-14T19:16:28.145Z,18.41
2023-05-14T19:18:58.971Z,18.33
2023-05-14T19:21:26.216Z,18.22
2023-05-14T19:23:53.510Z,18.17
2023-05-14T19:26:21.772Z,18.05
2023-05-14T19:28:52.760Z,18.13
2023-05-14T19:31:19.874Z,18.11
2023-05-14T19:33:48.305Z,18.08
2023-05-14T19:36:15.097Z,17.81
2023-05-14T19:38:41.845Z,17.66
2023-05-14T19:41:08.562Z,17.89
2023-05-14T19:43:35.345Z,17.29
2023-05-14T19:46:04.454Z,17.62
2023-05-14T19:48:32.236Z,16.46
2023-05-14T19:51:00.382Z,17.63
2023-05-14T19:53:30.660Z,17.28
2023-05-14T19:55:57.804Z,17.45
2023-05-14T19:58:25.441Z,17.27
2023-05-14T20:00:56.762Z,17.34
2023-05-14T20:03:27.992Z,17.29
2023-05-14T20:05:55.520Z,17.27
2023-05-14T20:08:22.683Z,17.22
2023-05-14T20:10:53.257Z,16.98
2023-05-14T20:13:20.149Z,16.62
2023-05-14T20:15:50.153Z,17.02
2023-05-14T20:18:16.993Z,16.70
2023-05-14T20:20:44.589Z,16.54
2023-05-14T20:23:11.409Z,16.88
2023-05-14T20:25:39.603Z,16.83
2023-05-14T20:28:07.091Z,16.59
2023-05-14T20:30:35.745Z,16.66
2023-05-14T20:33:04.098Z,16.65
2023-05-14T20:36:06.581Z,16.61
2023-05-14T20:38:34.889Z,16.48
2023-05-14T20:41:12.187Z,16.38
2023-05-14T20:43:39.095Z,15.74
2023-05-14T20:46:07.653Z,16.23
2023-05-14T20:48:34.506Z,16.21
2023-05-14T20:51:07.986Z,16.14
2023-05-14T20:53:35.084Z,15.83
2023-05-14T20:56:01.856Z,16.11
2023-05-14T20:58:28.857Z,16.07
2023-05-14T21:01:02.886Z,16.03
2023-05-14T21:03:34.422Z,16.00
2023-05-14T21:06:02.622Z,15.91
2023-05-14T21:08:32.482Z,15.93
2023-05-14T21:10:59.243Z,15.86
2023-05-14T21:13:25.967Z,15.75
2023-05-14T21:15:52.850Z,15.25
2023-05-14T21:18:19.632Z,15.47
2023-05-14T21:20:47.564Z,15.57
2023-05-14T21:23:14.728Z,15.25
2023-05-14T21:25:41.563Z,15.42
2023-05-14T21:28:08.657Z,14.72
2023-05-14T21:30:36.070Z,14.88
2023-05-14T21:33:03.154Z,15.12
2023-05-14T21:35:30.024Z,15.24
2023-05-14T21:37:56.778Z,14.80
2023-05-14T21:40:23.563Z,15.23
2023-05-14T21:42:50.387Z,15.10
2023-05-14T21:45:17.184Z,15.01
2023-05-14T21:47:43.964Z,15.00
2023-05-14T21:50:11.059Z,15.15
2023-05-14T21:52:38.410Z,13.85
2023-05-14T21:55:05.563Z,15.05
2023-05-14T21:57:34.583Z,14.98
2023-05-14T22:00:02.224Z,14.91
2023-05-14T22:02:32.097Z,14.84
2023-05-14T22:04:58.896Z,14.37
2023-05-14T22:07:25.635Z,14.73
2023-05-14T22:09:52.878Z,14.30
2023-05-14T22:12:19.667Z,14.42
2023-05-14T22:14:46.480Z,14.38
2023-05-14T22:17:32.727Z,14.49
2023-05-14T22:20:00.876Z,14.04
2023-05-14T22:22:27.613Z,14.51
2023-05-14T22:24:54.791Z,13.70
2023-05-14T22:27:21.507Z,14.34
2023-05-14T22:29:48.295Z,14.29
2023-05-14T22:32:15.368Z,14.38
2023-05-14T22:34:42.192Z,13.65
2023-05-14T22:37:09.133Z,14.24
2023-05-14T22:39:35.946Z,13.94
2023-05-14T22:42:02.740Z,14.24
2023-05-14T22:44:30.019Z,14.18
2023-05-14T22:46:57.216Z,13.91
2023-05-14T22:49:24.106Z,13.40
2023-05-14T22:51:54.206Z,13.93
2023-05-14T22:54:21.002Z,13.88
2023-05-14T22:56:47.813Z,13.56
2023-05-14T22:59:14.564Z,12.70
2023-05-14T23:01:41.385Z,13.35
2023-05-14T23:04:08.257Z,13.83
2023-05-14T23:06:35.482Z,12.52
2023-05-14T23:09:02.293Z,13.67
2023-05-14T23:11:29.043Z,13.55
2023-05-14T23:13:55.958Z,13.69
2023-05-14T23:16:22.819Z,13.60
2023-05-14T23:18:49.749Z,13.59
2023-05-14T23:21:16.671Z,11.86
2023-05-14T23:23:43.483Z,13.48
2023-05-14T23:26:10.453Z,12.54
2023-05-14T23:28:37.256Z,13.72
2023-05-14T23:31:04.163Z,13.58
2023-05-14T23:33:30.955Z,13.60
2023-05-14T23:35:58.019Z,13.45
2023-05-14T23:38:24.884Z,13.36
2023-05-14T23:40:51.804Z,13.50
2023-05-14T23:43:18.590Z,12.88
2023-05-14T23:45:45.546Z,13.49
2023-05-14T23:48:12.627Z,12.49
2023-05-14T23:50:39.356Z,12.62
2023-05-14T23:53:06.089Z,12.82
2023-05-14T23:55:32.906Z,12.97
2023-05-14T23:57:59.935Z,13.49
